KSJT/SJT METAR and TAF weather

Enter ICAO airport designator
Station Type Date Time Source
KSJT METAR 2021/09/20 04:51 UTC NOAA

KSJT 200451Z AUTO 17006KT 10SM CLR 24/13 A2989 RMK AO2 SLP096 T02440133


Station Type Date Time Source
KSJT Decoded METAR 2021/09/20 04:51 UTC NOAA

MATHIS FIELD, TX, United States (KSJT) 31-21N 100-30W 581M
Sep 20, 2021 - 12:51 AM EDT / 2021.09.20 0451 UTC
Wind: from the S (170 degrees) at 7 MPH (6 KT):0
Visibility: 10 mile(s):0
Sky conditions: clear
Temperature: 75.9 F (24.4 C)
Dew Point: 55.9 F (13.3 C)
Relative Humidity: 49%
Pressure (altimeter): 29.89 in. Hg (1012 hPa)
ob: KSJT 200451Z AUTO 17006KT 10SM CLR 24/13 A2989 RMK AO2 SLP096 T02440133
cycle: 5

Station Type Date Time Source
KSJT TAF 2021/09/19 18:22 UTC NOAA

TAF KSJT 191720Z 1918/2018 20005KT P6SM SKC
FM192000 12006KT P6SM SKC
FM200600 18005KT P6SM SKC
FM201500 20013G20KT P6SM SKC

Example: see airport list